sensor_id;sensor_type;location;lat;lon;timestamp;noise_LAeq;noise_LA_min;noise_LA_max;noise_LA01;noise_LA95
58303;Laerm;44109;52.398;7.024;2023-08-31T00:01:01;46.57;30.85;60.98;;
58303;Laerm;44109;52.398;7.024;2023-08-31T00:03:31;46.40;30.87;56.63;;
58303;Laerm;44109;52.398;7.024;2023-08-31T00:06:03;46.22;30.61;56.63;;
58303;Laerm;44109;52.398;7.024;2023-08-31T00:08:34;45.88;31.02;56.49;;
58303;Laerm;44109;52.398;7.024;2023-08-31T00:11:02;46.20;30.92;56.49;;
58303;Laerm;44109;52.398;7.024;2023-08-31T00:13:30;46.20;30.71;56.47;;
58303;Laerm;44109;52.398;7.024;2023-08-31T00:15:57;46.20;30.92;56.58;;
58303;Laerm;44109;52.398;7.024;2023-08-31T00:18:26;46.10;31.06;56.41;;
58303;Laerm;44109;52.398;7.024;2023-08-31T00:20:54;46.03;30.80;56.43;;
58303;Laerm;44109;52.398;7.024;2023-08-31T00:23:23;45.96;30.80;56.42;;
58303;Laerm;44109;52.398;7.024;2023-08-31T00:25:52;45.82;30.87;56.43;;
58303;Laerm;44109;52.398;7.024;2023-08-31T00:28:20;45.94;30.93;56.51;;
58303;Laerm;44109;52.398;7.024;2023-08-31T00:30:47;45.85;31.16;56.29;;
58303;Laerm;44109;52.398;7.024;2023-08-31T00:33:16;45.86;30.99;56.82;;
58303;Laerm;44109;52.398;7.024;2023-08-31T00:35:43;45.93;30.80;56.70;;
58303;Laerm;44109;52.398;7.024;2023-08-31T00:38:12;45.78;30.98;56.33;;
58303;Laerm;44109;52.398;7.024;2023-08-31T00:40:44;45.78;30.88;56.36;;
58303;Laerm;44109;52.398;7.024;2023-08-31T00:43:13;46.10;31.50;56.65;;
58303;Laerm;44109;52.398;7.024;2023-08-31T00:45:45;46.33;32.45;56.56;;
58303;Laerm;44109;52.398;7.024;2023-08-31T00:48:16;46.05;31.02;56.49;;
58303;Laerm;44109;52.398;7.024;2023-08-31T00:50:44;46.21;31.38;56.60;;
58303;Laerm;44109;52.398;7.024;2023-08-31T00:53:13;45.97;31.27;56.54;;
58303;Laerm;44109;52.398;7.024;2023-08-31T00:55:44;46.23;31.71;56.75;;
58303;Laerm;44109;52.398;7.024;2023-08-31T00:58:12;46.11;31.79;56.44;;
58303;Laerm;44109;52.398;7.024;2023-08-31T01:00:48;45.95;30.80;56.42;;
58303;Laerm;44109;52.398;7.024;2023-08-31T01:03:33;45.46;30.96;56.61;;
58303;Laerm;44109;52.398;7.024;2023-08-31T01:06:24;45.53;30.96;56.41;;
58303;Laerm;44109;52.398;7.024;2023-08-31T01:09:03;45.33;31.28;56.38;;
58303;Laerm;44109;52.398;7.024;2023-08-31T01:11:48;45.48;31.46;56.53;;
58303;Laerm;44109;52.398;7.024;2023-08-31T01:14:19;33.84;31.30;38.01;;
58303;Laerm;44109;52.398;7.024;2023-08-31T01:16:53;45.28;31.30;56.23;;
58303;Laerm;44109;52.398;7.024;2023-08-31T01:19:44;45.69;32.18;56.39;;
58303;Laerm;44109;52.398;7.024;2023-08-31T01:22:21;45.60;31.55;57.00;;
58303;Laerm;44109;52.398;7.024;2023-08-31T01:24:54;45.60;31.60;56.34;;
58303;Laerm;44109;52.398;7.024;2023-08-31T01:27:23;45.91;31.03;56.58;;
58303;Laerm;44109;52.398;7.024;2023-08-31T01:29:54;45.94;31.08;56.73;;
58303;Laerm;44109;52.398;7.024;2023-08-31T01:32:22;46.19;31.51;56.45;;
58303;Laerm;44109;52.398;7.024;2023-08-31T01:34:51;45.96;31.29;56.48;;
58303;Laerm;44109;52.398;7.024;2023-08-31T01:37:42;45.65;31.56;56.70;;
58303;Laerm;44109;52.398;7.024;2023-08-31T01:40:18;45.53;31.21;56.43;;
58303;Laerm;44109;52.398;7.024;2023-08-31T01:42:48;45.89;31.41;56.46;;
58303;Laerm;44109;52.398;7.024;2023-08-31T01:45:20;45.97;31.61;56.70;;
58303;Laerm;44109;52.398;7.024;2023-08-31T01:47:48;46.19;31.19;56.62;;
58303;Laerm;44109;52.398;7.024;2023-08-31T01:50:17;46.34;31.40;56.82;;
58303;Laerm;44109;52.398;7.024;2023-08-31T01:52:44;46.48;31.89;56.82;;
58303;Laerm;44109;52.398;7.024;2023-08-31T01:55:13;46.17;31.41;56.49;;
58303;Laerm;44109;52.398;7.024;2023-08-31T01:57:42;46.23;31.56;56.74;;
58303;Laerm;44109;52.398;7.024;2023-08-31T02:00:11;46.33;31.11;58.58;;
58303;Laerm;44109;52.398;7.024;2023-08-31T02:02:39;46.30;31.60;56.68;;
58303;Laerm;44109;52.398;7.024;2023-08-31T02:05:07;46.49;31.57;56.77;;
58303;Laerm;44109;52.398;7.024;2023-08-31T02:07:35;46.47;31.53;56.54;;
58303;Laerm;44109;52.398;7.024;2023-08-31T02:10:03;46.65;32.37;56.65;;
58303;Laerm;44109;52.398;7.024;2023-08-31T02:12:33;46.78;33.15;56.91;;
58303;Laerm;44109;52.398;7.024;2023-08-31T02:15:04;46.57;31.89;56.61;;
58303;Laerm;44109;52.398;7.024;2023-08-31T02:17:32;46.77;32.30;56.94;;
58303;Laerm;44109;52.398;7.024;2023-08-31T02:20:00;46.74;32.04;61.90;;
58303;Laerm;44109;52.398;7.024;2023-08-31T02:22:33;46.70;32.53;56.81;;
58303;Laerm;44109;52.398;7.024;2023-08-31T02:25:01;47.80;34.03;64.19;;
58303;Laerm;44109;52.398;7.024;2023-08-31T02:27:29;47.28;34.86;56.72;;
58303;Laerm;44109;52.398;7.024;2023-08-31T02:29:58;47.18;33.93;65.15;;
58303;Laerm;44109;52.398;7.024;2023-08-31T02:32:27;47.20;34.12;56.98;;
58303;Laerm;44109;52.398;7.024;2023-08-31T02:34:54;47.09;32.79;57.09;;
58303;Laerm;44109;52.398;7.024;2023-08-31T02:37:22;47.28;34.80;56.80;;
58303;Laerm;44109;52.398;7.024;2023-08-31T02:39:50;47.38;33.74;57.26;;
58303;Laerm;44109;52.398;7.024;2023-08-31T02:42:18;47.37;34.68;56.92;;
58303;Laerm;44109;52.398;7.024;2023-08-31T02:44:45;46.97;33.28;56.77;;
58303;Laerm;44109;52.398;7.024;2023-08-31T02:47:14;46.91;32.14;56.85;;
58303;Laerm;44109;52.398;7.024;2023-08-31T02:49:42;47.46;33.08;58.20;;
58303;Laerm;44109;52.398;7.024;2023-08-31T02:52:10;47.07;33.17;56.90;;
58303;Laerm;44109;52.398;7.024;2023-08-31T02:54:37;47.03;33.50;56.97;;
58303;Laerm;44109;52.398;7.024;2023-08-31T02:57:05;48.06;34.50;57.17;;
58303;Laerm;44109;52.398;7.024;2023-08-31T02:59:33;47.09;33.28;57.10;;
58303;Laerm;44109;52.398;7.024;2023-08-31T03:02:02;47.21;33.32;56.90;;
58303;Laerm;44109;52.398;7.024;2023-08-31T03:04:31;47.59;34.44;56.98;;
58303;Laerm;44109;52.398;7.024;2023-08-31T03:06:59;47.55;35.49;57.34;;
58303;Laerm;44109;52.398;7.024;2023-08-31T03:09:26;47.58;34.72;57.85;;
58303;Laerm;44109;52.398;7.024;2023-08-31T03:11:54;47.82;36.22;57.24;;
58303;Laerm;44109;52.398;7.024;2023-08-31T03:14:22;47.42;32.95;57.07;;
58303;Laerm;44109;52.398;7.024;2023-08-31T03:16:50;47.61;35.26;57.27;;
58303;Laerm;44109;52.398;7.024;2023-08-31T03:19:17;48.18;36.45;57.01;;
58303;Laerm;44109;52.398;7.024;2023-08-31T03:21:46;47.56;34.43;56.98;;
58303;Laerm;44109;52.398;7.024;2023-08-31T03:24:14;47.71;36.60;57.40;;
58303;Laerm;44109;52.398;7.024;2023-08-31T03:26:41;47.55;35.32;57.03;;
58303;Laerm;44109;52.398;7.024;2023-08-31T03:29:09;47.89;37.96;56.84;;
58303;Laerm;44109;52.398;7.024;2023-08-31T03:31:36;47.38;34.45;57.21;;
58303;Laerm;44109;52.398;7.024;2023-08-31T03:34:04;48.09;37.68;57.04;;
58303;Laerm;44109;52.398;7.024;2023-08-31T03:36:32;47.27;33.51;56.78;;
58303;Laerm;44109;52.398;7.024;2023-08-31T03:39:01;47.49;33.20;56.97;;
58303;Laerm;44109;52.398;7.024;2023-08-31T03:41:28;48.52;34.48;61.94;;
58303;Laerm;44109;52.398;7.024;2023-08-31T03:43:56;48.45;35.70;67.45;;
58303;Laerm;44109;52.398;7.024;2023-08-31T03:46:24;47.22;35.00;57.36;;
58303;Laerm;44109;52.398;7.024;2023-08-31T03:48:52;47.12;33.66;57.28;;
58303;Laerm;44109;52.398;7.024;2023-08-31T03:51:20;47.14;33.62;57.30;;
58303;Laerm;44109;52.398;7.024;2023-08-31T03:53:48;47.14;33.53;56.85;;
58303;Laerm;44109;52.398;7.024;2023-08-31T03:56:17;47.27;34.50;56.63;;
58303;Laerm;44109;52.398;7.024;2023-08-31T03:58:44;47.74;36.59;57.20;;
58303;Laerm;44109;52.398;7.024;2023-08-31T04:01:12;47.58;34.47;56.78;;
58303;Laerm;44109;52.398;7.024;2023-08-31T04:03:42;47.42;34.70;56.81;;
58303;Laerm;44109;52.398;7.024;2023-08-31T04:06:10;47.46;34.09;56.90;;
58303;Laerm;44109;52.398;7.024;2023-08-31T04:08:37;47.42;34.88;56.93;;
58303;Laerm;44109;52.398;7.024;2023-08-31T04:11:05;47.37;34.39;57.07;;
58303;Laerm;44109;52.398;7.024;2023-08-31T04:13:34;47.47;33.65;56.99;;
58303;Laerm;44109;52.398;7.024;2023-08-31T04:16:01;47.00;32.91;56.60;;
58303;Laerm;44109;52.398;7.024;2023-08-31T04:18:29;47.16;33.22;57.25;;
58303;Laerm;44109;52.398;7.024;2023-08-31T04:20:57;47.40;35.40;56.93;;
58303;Laerm;44109;52.398;7.024;2023-08-31T04:23:25;47.18;33.26;56.84;;
58303;Laerm;44109;52.398;7.024;2023-08-31T04:25:52;48.09;35.02;63.44;;
58303;Laerm;44109;52.398;7.024;2023-08-31T04:28:20;48.11;33.30;65.45;;
58303;Laerm;44109;52.398;7.024;2023-08-31T04:30:49;47.88;34.87;57.67;;
58303;Laerm;44109;52.398;7.024;2023-08-31T04:33:17;48.05;35.85;58.57;;
58303;Laerm;44109;52.398;7.024;2023-08-31T04:35:45;47.37;34.61;56.76;;
58303;Laerm;44109;52.398;7.024;2023-08-31T04:38:13;47.65;33.88;68.00;;
58303;Laerm;44109;52.398;7.024;2023-08-31T04:40:40;47.64;34.90;59.27;;
58303;Laerm;44109;52.398;7.024;2023-08-31T04:43:09;47.00;33.52;60.22;;
58303;Laerm;44109;52.398;7.024;2023-08-31T04:45:37;48.07;33.64;64.40;;
58303;Laerm;44109;52.398;7.024;2023-08-31T04:48:06;47.84;37.20;56.78;;
58303;Laerm;44109;52.398;7.024;2023-08-31T04:50:34;47.62;35.49;59.68;;
58303;Laerm;44109;52.398;7.024;2023-08-31T04:53:01;47.53;37.33;56.68;;
58303;Laerm;44109;52.398;7.024;2023-08-31T04:55:30;47.42;36.65;57.87;;
58303;Laerm;44109;52.398;7.024;2023-08-31T04:57:58;48.92;36.48;62.00;;
58303;Laerm;44109;52.398;7.024;2023-08-31T05:00:26;48.69;38.67;64.92;;
58303;Laerm;44109;52.398;7.024;2023-08-31T05:02:53;48.35;36.32;59.28;;
58303;Laerm;44109;52.398;7.024;2023-08-31T05:05:23;48.22;36.84;57.93;;
58303;Laerm;44109;52.398;7.024;2023-08-31T05:07:50;47.40;35.17;60.55;;
58303;Laerm;44109;52.398;7.024;2023-08-31T05:10:18;47.54;36.09;58.77;;
58303;Laerm;44109;52.398;7.024;2023-08-31T05:12:46;48.08;37.10;57.22;;
58303;Laerm;44109;52.398;7.024;2023-08-31T05:15:13;47.91;38.46;59.81;;
58303;Laerm;44109;52.398;7.024;2023-08-31T05:17:41;48.80;38.26;58.86;;
58303;Laerm;44109;52.398;7.024;2023-08-31T05:20:10;47.81;38.45;57.22;;
58303;Laerm;44109;52.398;7.024;2023-08-31T05:22:39;48.19;37.25;57.01;;
58303;Laerm;44109;52.398;7.024;2023-08-31T05:25:07;47.80;37.04;57.19;;
58303;Laerm;44109;52.398;7.024;2023-08-31T05:27:35;48.24;36.08;61.16;;
58303;Laerm;44109;52.398;7.024;2023-08-31T05:30:03;48.13;36.15;63.74;;
58303;Laerm;44109;52.398;7.024;2023-08-31T05:32:31;48.14;36.51;65.75;;
58303;Laerm;44109;52.398;7.024;2023-08-31T05:34:58;48.09;36.76;59.40;;
58303;Laerm;44109;52.398;7.024;2023-08-31T05:37:26;47.83;36.42;59.82;;
58303;Laerm;44109;52.398;7.024;2023-08-31T05:40:00;49.04;36.62;60.40;;
58303;Laerm;44109;52.398;7.024;2023-08-31T05:42:32;48.74;37.16;63.33;;
58303;Laerm;44109;52.398;7.024;2023-08-31T05:44:59;48.57;36.18;59.38;;
58303;Laerm;44109;52.398;7.024;2023-08-31T05:47:27;48.97;37.32;64.71;;
58303;Laerm;44109;52.398;7.024;2023-08-31T05:49:55;48.24;36.25;58.95;;
58303;Laerm;44109;52.398;7.024;2023-08-31T05:52:22;48.11;36.92;57.73;;
58303;Laerm;44109;52.398;7.024;2023-08-31T05:54:50;47.90;35.50;57.75;;
58303;Laerm;44109;52.398;7.024;2023-08-31T05:57:20;47.94;36.33;57.62;;
58303;Laerm;44109;52.398;7.024;2023-08-31T05:59:48;48.13;35.80;57.87;;
58303;Laerm;44109;52.398;7.024;2023-08-31T06:02:15;47.85;35.48;59.71;;
58303;Laerm;44109;52.398;7.024;2023-08-31T06:04:43;49.51;35.58;63.09;;
58303;Laerm;44109;52.398;7.024;2023-08-31T06:07:10;48.94;37.56;62.75;;
58303;Laerm;44109;52.398;7.024;2023-08-31T06:09:38;50.25;38.42;66.50;;
58303;Laerm;44109;52.398;7.024;2023-08-31T06:12:07;49.39;40.06;59.91;;
58303;Laerm;44109;52.398;7.024;2023-08-31T06:14:36;48.49;37.62;62.46;;
58303;Laerm;44109;52.398;7.024;2023-08-31T06:17:04;48.76;41.14;59.50;;
58303;Laerm;44109;52.398;7.024;2023-08-31T06:19:31;49.00;39.32;57.96;;
58303;Laerm;44109;52.398;7.024;2023-08-31T06:21:59;49.28;36.97;68.70;;
58303;Laerm;44109;52.398;7.024;2023-08-31T06:24:26;49.05;38.17;65.11;;
58303;Laerm;44109;52.398;7.024;2023-08-31T06:26:54;50.03;37.90;68.62;;
58303;Laerm;44109;52.398;7.024;2023-08-31T06:29:22;53.09;38.25;67.23;;
58303;Laerm;44109;52.398;7.024;2023-08-31T06:31:52;52.07;37.80;65.60;;
58303;Laerm;44109;52.398;7.024;2023-08-31T06:34:19;48.76;37.10;63.54;;
58303;Laerm;44109;52.398;7.024;2023-08-31T06:36:47;49.18;38.99;57.59;;
58303;Laerm;44109;52.398;7.024;2023-08-31T06:39:14;49.57;39.19;61.73;;
58303;Laerm;44109;52.398;7.024;2023-08-31T06:41:42;51.34;38.46;77.50;;
58303;Laerm;44109;52.398;7.024;2023-08-31T06:44:10;49.54;39.58;60.50;;
58303;Laerm;44109;52.398;7.024;2023-08-31T06:46:37;49.05;38.29;66.34;;
58303;Laerm;44109;52.398;7.024;2023-08-31T06:49:06;48.68;38.22;63.71;;
58303;Laerm;44109;52.398;7.024;2023-08-31T06:51:34;48.81;40.24;61.13;;
58303;Laerm;44109;52.398;7.024;2023-08-31T06:54:02;49.06;40.33;64.09;;
58303;Laerm;44109;52.398;7.024;2023-08-31T06:56:32;48.56;38.59;63.92;;
58303;Laerm;44109;52.398;7.024;2023-08-31T06:59:01;48.64;39.04;63.43;;
58303;Laerm;44109;52.398;7.024;2023-08-31T07:01:29;48.72;39.59;61.92;;
58303;Laerm;44109;52.398;7.024;2023-08-31T07:03:56;49.11;39.58;59.92;;
58303;Laerm;44109;52.398;7.024;2023-08-31T07:06:25;49.11;39.09;57.55;;
58303;Laerm;44109;52.398;7.024;2023-08-31T07:08:53;49.74;39.99;71.30;;
58303;Laerm;44109;52.398;7.024;2023-08-31T07:11:21;49.13;38.20;60.59;;
58303;Laerm;44109;52.398;7.024;2023-08-31T07:13:48;49.14;40.55;63.01;;
58303;Laerm;44109;52.398;7.024;2023-08-31T07:16:16;50.68;40.72;77.55;;
58303;Laerm;44109;52.398;7.024;2023-08-31T07:18:44;49.71;39.95;58.50;;
58303;Laerm;44109;52.398;7.024;2023-08-31T07:21:11;49.62;41.59;63.95;;
58303;Laerm;44109;52.398;7.024;2023-08-31T07:23:45;47.88;38.27;64.54;;
58303;Laerm;44109;52.398;7.024;2023-08-31T07:26:13;48.50;37.15;58.23;;
58303;Laerm;44109;52.398;7.024;2023-08-31T07:28:42;49.02;39.05;57.34;;
58303;Laerm;44109;52.398;7.024;2023-08-31T07:31:10;48.63;37.18;64.88;;
58303;Laerm;44109;52.398;7.024;2023-08-31T07:33:38;49.92;40.74;58.31;;
58303;Laerm;44109;52.398;7.024;2023-08-31T07:36:05;50.21;41.35;62.03;;
58303;Laerm;44109;52.398;7.024;2023-08-31T07:38:33;50.16;40.67;65.30;;
58303;Laerm;44109;52.398;7.024;2023-08-31T07:41:02;51.84;40.51;72.41;;
58303;Laerm;44109;52.398;7.024;2023-08-31T07:43:31;50.51;38.43;71.50;;
58303;Laerm;44109;52.398;7.024;2023-08-31T07:45:59;48.46;38.72;64.69;;
58303;Laerm;44109;52.398;7.024;2023-08-31T07:48:26;49.66;41.41;71.75;;
58303;Laerm;44109;52.398;7.024;2023-08-31T07:50:55;49.55;40.27;67.28;;
58303;Laerm;44109;52.398;7.024;2023-08-31T07:53:23;51.30;40.22;64.47;;
58303;Laerm;44109;52.398;7.024;2023-08-31T07:55:52;50.84;41.51;75.01;;
58303;Laerm;44109;52.398;7.024;2023-08-31T07:58:23;51.29;40.73;72.57;;
58303;Laerm;44109;52.398;7.024;2023-08-31T08:00:53;49.99;40.32;70.11;;
58303;Laerm;44109;52.398;7.024;2023-08-31T08:03:21;49.33;41.16;57.74;;
58303;Laerm;44109;52.398;7.024;2023-08-31T08:05:49;49.47;40.97;57.57;;
58303;Laerm;44109;52.398;7.024;2023-08-31T08:08:17;50.89;40.54;66.51;;
58303;Laerm;44109;52.398;7.024;2023-08-31T08:10:44;50.08;41.54;67.22;;
58303;Laerm;44109;52.398;7.024;2023-08-31T08:13:12;49.29;38.54;70.74;;
58303;Laerm;44109;52.398;7.024;2023-08-31T08:15:41;48.01;38.65;57.33;;
58303;Laerm;44109;52.398;7.024;2023-08-31T08:18:09;48.56;38.88;57.00;;
58303;Laerm;44109;52.398;7.024;2023-08-31T08:20:36;48.46;38.15;59.29;;
58303;Laerm;44109;52.398;7.024;2023-08-31T08:23:05;48.86;39.33;64.01;;
58303;Laerm;44109;52.398;7.024;2023-08-31T08:25:33;47.61;37.08;56.77;;
58303;Laerm;44109;52.398;7.024;2023-08-31T08:28:01;49.44;39.67;58.41;;
58303;Laerm;44109;52.398;7.024;2023-08-31T08:30:29;49.13;38.20;58.32;;
58303;Laerm;44109;52.398;7.024;2023-08-31T08:32:58;50.00;40.93;63.61;;
58303;Laerm;44109;52.398;7.024;2023-08-31T08:35:26;49.16;39.56;62.12;;
58303;Laerm;44109;52.398;7.024;2023-08-31T08:37:53;48.39;39.48;57.42;;
58303;Laerm;44109;52.398;7.024;2023-08-31T08:40:21;50.15;39.70;67.66;;
58303;Laerm;44109;52.398;7.024;2023-08-31T08:42:52;49.52;41.00;68.02;;
58303;Laerm;44109;52.398;7.024;2023-08-31T08:45:24;50.20;40.55;61.22;;
58303;Laerm;44109;52.398;7.024;2023-08-31T08:47:53;50.18;41.08;68.20;;
58303;Laerm;44109;52.398;7.024;2023-08-31T08:50:22;53.18;41.32;69.13;;
58303;Laerm;44109;52.398;7.024;2023-08-31T08:52:51;51.39;41.60;68.54;;
58303;Laerm;44109;52.398;7.024;2023-08-31T08:55:19;50.15;41.76;65.57;;
58303;Laerm;44109;52.398;7.024;2023-08-31T08:57:48;51.52;42.30;71.04;;
58303;Laerm;44109;52.398;7.024;2023-08-31T09:00:16;50.99;41.41;72.08;;
58303;Laerm;44109;52.398;7.024;2023-08-31T09:02:44;50.43;44.28;61.24;;
58303;Laerm;44109;52.398;7.024;2023-08-31T09:05:11;50.83;40.69;64.19;;
58303;Laerm;44109;52.398;7.024;2023-08-31T09:08:00;51.08;40.61;61.31;;
58303;Laerm;44109;52.398;7.024;2023-08-31T09:10:35;51.57;42.86;64.91;;
58303;Laerm;44109;52.398;7.024;2023-08-31T09:13:06;50.44;42.36;58.00;;
58303;Laerm;44109;52.398;7.024;2023-08-31T09:15:43;50.07;40.46;59.26;;
58303;Laerm;44109;52.398;7.024;2023-08-31T09:18:16;50.77;43.01;64.27;;
58303;Laerm;44109;52.398;7.024;2023-08-31T09:20:46;51.01;41.82;71.36;;
58303;Laerm;44109;52.398;7.024;2023-08-31T09:23:16;50.38;41.16;58.89;;
58303;Laerm;44109;52.398;7.024;2023-08-31T09:25:46;49.98;41.48;65.13;;
58303;Laerm;44109;52.398;7.024;2023-08-31T09:28:16;51.89;42.98;68.58;;
58303;Laerm;44109;52.398;7.024;2023-08-31T09:30:46;50.52;41.72;57.65;;
58303;Laerm;44109;52.398;7.024;2023-08-31T09:33:16;51.16;42.60;61.58;;
58303;Laerm;44109;52.398;7.024;2023-08-31T09:35:55;49.97;40.62;61.04;;
58303;Laerm;44109;52.398;7.024;2023-08-31T09:38:24;48.28;38.35;57.20;;
58303;Laerm;44109;52.398;7.024;2023-08-31T09:40:52;49.93;41.32;58.25;;
58303;Laerm;44109;52.398;7.024;2023-08-31T09:43:30;50.43;41.95;58.38;;
58303;Laerm;44109;52.398;7.024;2023-08-31T09:45:59;48.77;39.48;57.48;;
58303;Laerm;44109;52.398;7.024;2023-08-31T09:48:27;49.02;40.93;63.13;;
58303;Laerm;44109;52.398;7.024;2023-08-31T09:50:56;49.22;40.44;57.25;;
58303;Laerm;44109;52.398;7.024;2023-08-31T09:53:29;49.31;40.49;57.69;;
58303;Laerm;44109;52.398;7.024;2023-08-31T09:55:57;49.98;41.44;58.67;;
58303;Laerm;44109;52.398;7.024;2023-08-31T09:58:26;48.80;39.28;58.39;;
58303;Laerm;44109;52.398;7.024;2023-08-31T10:00:55;49.21;41.09;57.64;;
58303;Laerm;44109;52.398;7.024;2023-08-31T10:03:24;48.65;40.22;57.41;;
58303;Laerm;44109;52.398;7.024;2023-08-31T10:05:54;49.00;38.35;57.90;;
58303;Laerm;44109;52.398;7.024;2023-08-31T10:08:25;48.88;39.34;58.80;;
58303;Laerm;44109;52.398;7.024;2023-08-31T10:10:59;48.86;39.66;57.66;;
58303;Laerm;44109;52.398;7.024;2023-08-31T10:13:31;49.57;39.62;57.39;;
58303;Laerm;44109;52.398;7.024;2023-08-31T10:16:04;49.60;40.54;72.72;;
58303;Laerm;44109;52.398;7.024;2023-08-31T10:18:34;54.83;41.13;84.82;;
58303;Laerm;44109;52.398;7.024;2023-08-31T10:21:03;48.51;39.17;57.20;;
58303;Laerm;44109;52.398;7.024;2023-08-31T10:23:32;51.04;43.36;61.51;;
58303;Laerm;44109;52.398;7.024;2023-08-31T10:26:03;51.99;44.68;59.31;;
58303;Laerm;44109;52.398;7.024;2023-08-31T10:28:42;49.57;41.64;58.12;;
58303;Laerm;44109;52.398;7.024;2023-08-31T10:31:15;49.16;40.08;64.08;;
58303;Laerm;44109;52.398;7.024;2023-08-31T10:33:44;49.66;40.79;59.01;;
58303;Laerm;44109;52.398;7.024;2023-08-31T10:36:14;51.54;41.50;64.72;;
58303;Laerm;44109;52.398;7.024;2023-08-31T10:38:50;50.06;41.24;60.75;;
58303;Laerm;44109;52.398;7.024;2023-08-31T10:41:35;48.68;39.77;68.62;;
58303;Laerm;44109;52.398;7.024;2023-08-31T10:44:18;49.74;41.03;62.46;;
58303;Laerm;44109;52.398;7.024;2023-08-31T10:46:47;50.85;40.98;60.80;;
58303;Laerm;44109;52.398;7.024;2023-08-31T10:49:17;50.67;42.73;58.07;;
58303;Laerm;44109;52.398;7.024;2023-08-31T10:51:48;51.45;40.70;66.05;;
58303;Laerm;44109;52.398;7.024;2023-08-31T10:54:23;50.58;42.86;63.92;;
58303;Laerm;44109;52.398;7.024;2023-08-31T10:57:01;49.20;41.01;57.77;;
58303;Laerm;44109;52.398;7.024;2023-08-31T10:59:46;52.91;45.11;64.86;;
58303;Laerm;44109;52.398;7.024;2023-08-31T11:02:34;50.13;41.24;63.61;;
58303;Laerm;44109;52.398;7.024;2023-08-31T11:05:07;52.47;43.82;75.51;;
58303;Laerm;44109;52.398;7.024;2023-08-31T11:07:35;50.85;44.25;74.06;;
58303;Laerm;44109;52.398;7.024;2023-08-31T11:10:14;62.69;44.11;92.69;;
58303;Laerm;44109;52.398;7.024;2023-08-31T11:12:44;77.34;54.73;99.34;;
58303;Laerm;44109;52.398;7.024;2023-08-31T11:15:15;74.86;52.31;100.43;;
58303;Laerm;44109;52.398;7.024;2023-08-31T11:17:44;74.05;49.38;98.93;;
58303;Laerm;44109;52.398;7.024;2023-08-31T11:20:17;74.46;47.78;102.42;;
58303;Laerm;44109;52.398;7.024;2023-08-31T11:22:48;79.89;57.49;101.79;;
58303;Laerm;44109;52.398;7.024;2023-08-31T11:25:18;77.38;49.40;101.63;;
58303;Laerm;44109;52.398;7.024;2023-08-31T11:27:56;70.25;42.88;99.40;;
58303;Laerm;44109;52.398;7.024;2023-08-31T11:30:26;64.69;43.03;98.69;;
58303;Laerm;44109;52.398;7.024;2023-08-31T11:32:54;63.03;41.33;94.46;;
58303;Laerm;44109;52.398;7.024;2023-08-31T11:35:23;66.84;38.98;99.56;;
58303;Laerm;44109;52.398;7.024;2023-08-31T11:37:55;63.32;39.38;94.22;;
58303;Laerm;44109;52.398;7.024;2023-08-31T11:40:26;62.42;39.57;94.97;;
58303;Laerm;44109;52.398;7.024;2023-08-31T11:42:53;63.70;38.16;98.99;;
58303;Laerm;44109;52.398;7.024;2023-08-31T11:45:23;50.20;38.44;80.04;;
58303;Laerm;44109;52.398;7.024;2023-08-31T11:47:53;49.62;36.86;68.78;;
58303;Laerm;44109;52.398;7.024;2023-08-31T11:50:22;59.95;39.74;95.77;;
58303;Laerm;44109;52.398;7.024;2023-08-31T11:52:51;49.79;38.31;71.53;;
58303;Laerm;44109;52.398;7.024;2023-08-31T11:55:20;49.91;39.81;70.79;;
58303;Laerm;44109;52.398;7.024;2023-08-31T11:57:51;50.02;39.91;74.91;;
58303;Laerm;44109;52.398;7.024;2023-08-31T12:00:22;49.58;40.55;69.76;;
58303;Laerm;44109;52.398;7.024;2023-08-31T12:02:57;49.37;39.31;63.57;;
58303;Laerm;44109;52.398;7.024;2023-08-31T12:05:25;57.90;42.45;89.91;;
58303;Laerm;44109;52.398;7.024;2023-08-31T12:07:54;54.59;43.78;72.45;;
58303;Laerm;44109;52.398;7.024;2023-08-31T12:10:24;53.81;40.69;71.15;;
58303;Laerm;44109;52.398;7.024;2023-08-31T12:12:53;49.61;40.34;62.46;;
58303;Laerm;44109;52.398;7.024;2023-08-31T12:15:22;50.89;40.58;64.49;;
58303;Laerm;44109;52.398;7.024;2023-08-31T12:17:50;49.18;39.29;62.12;;
58303;Laerm;44109;52.398;7.024;2023-08-31T12:20:25;48.83;38.96;65.74;;
58303;Laerm;44109;52.398;7.024;2023-08-31T12:22:53;48.76;39.31;59.32;;
58303;Laerm;44109;52.398;7.024;2023-08-31T12:25:21;49.30;40.39;69.69;;
58303;Laerm;44109;52.398;7.024;2023-08-31T12:27:49;49.35;38.02;58.84;;
58303;Laerm;44109;52.398;7.024;2023-08-31T12:30:18;50.32;39.20;59.44;;
58303;Laerm;44109;52.398;7.024;2023-08-31T12:32:46;51.25;43.08;64.18;;
58303;Laerm;44109;52.398;7.024;2023-08-31T12:35:14;53.22;42.65;76.88;;
58303;Laerm;44109;52.398;7.024;2023-08-31T12:37:41;52.14;43.30;75.53;;
58303;Laerm;44109;52.398;7.024;2023-08-31T12:40:10;55.43;44.49;76.07;;
58303;Laerm;44109;52.398;7.024;2023-08-31T12:42:38;62.38;47.11;91.17;;
58303;Laerm;44109;52.398;7.024;2023-08-31T12:45:07;57.40;44.84;83.11;;
58303;Laerm;44109;52.398;7.024;2023-08-31T12:47:36;54.03;44.25;77.04;;
58303;Laerm;44109;52.398;7.024;2023-08-31T12:50:05;64.43;45.79;90.99;;
58303;Laerm;44109;52.398;7.024;2023-08-31T12:52:33;78.18;53.66;101.82;;
58303;Laerm;44109;52.398;7.024;2023-08-31T12:55:01;76.84;51.27;98.97;;
58303;Laerm;44109;52.398;7.024;2023-08-31T12:57:30;75.77;49.94;100.81;;
58303;Laerm;44109;52.398;7.024;2023-08-31T12:59:58;73.31;50.75;99.45;;
58303;Laerm;44109;52.398;7.024;2023-08-31T13:02:25;69.02;51.73;98.13;;
58303;Laerm;44109;52.398;7.024;2023-08-31T13:04:54;66.34;41.07;100.78;;
58303;Laerm;44109;52.398;7.024;2023-08-31T13:07:22;63.50;40.77;95.12;;
58303;Laerm;44109;52.398;7.024;2023-08-31T13:09:50;54.56;42.67;75.99;;
58303;Laerm;44109;52.398;7.024;2023-08-31T13:12:17;52.58;41.06;81.61;;
58303;Laerm;44109;52.398;7.024;2023-08-31T13:14:45;54.40;38.44;86.88;;
58303;Laerm;44109;52.398;7.024;2023-08-31T13:17:13;60.93;37.36;96.54;;
58303;Laerm;44109;52.398;7.024;2023-08-31T13:19:40;58.94;36.54;94.69;;
58303;Laerm;44109;52.398;7.024;2023-08-31T13:22:09;48.38;36.70;67.13;;
58303;Laerm;44109;52.398;7.024;2023-08-31T13:24:41;49.93;37.84;72.32;;
58303;Laerm;44109;52.398;7.024;2023-08-31T13:27:09;51.51;36.84;77.17;;
58303;Laerm;44109;52.398;7.024;2023-08-31T13:29:37;49.01;36.75;69.27;;
58303;Laerm;44109;52.398;7.024;2023-08-31T13:32:05;48.64;35.73;58.27;;
58303;Laerm;44109;52.398;7.024;2023-08-31T13:34:33;49.07;35.94;66.62;;
58303;Laerm;44109;52.398;7.024;2023-08-31T13:37:01;49.41;37.19;71.12;;
58303;Laerm;44109;52.398;7.024;2023-08-31T13:39:33;48.86;37.14;58.22;;
58303;Laerm;44109;52.398;7.024;2023-08-31T13:42:02;50.23;39.38;73.48;;
58303;Laerm;44109;52.398;7.024;2023-08-31T13:44:30;50.24;41.57;71.53;;
58303;Laerm;44109;52.398;7.024;2023-08-31T13:46:58;51.72;41.20;70.85;;
58303;Laerm;44109;52.398;7.024;2023-08-31T13:49:25;52.36;44.06;70.99;;
58303;Laerm;44109;52.398;7.024;2023-08-31T13:51:53;53.30;42.46;74.66;;
58303;Laerm;44109;52.398;7.024;2023-08-31T13:54:21;54.15;41.92;76.22;;
58303;Laerm;44109;52.398;7.024;2023-08-31T13:56:50;58.61;40.81;93.21;;